Time;durP1;ratioP1;P1;durP2;ratioP2;P2;SDS_P1;SDS_P2;PMS_P1;PMS_P2;Temp;Humidity;BMP_temperature;BMP_pressure;BME280_temperature;BME280_humidity;BME280_pressure;Samples;Min_cycle;Max_cycle;Signal;HPM_P1;HPM_P2
2021/12/06 00:01:21;;;;;;;29.02;12.50;;;1.70;99.90;;;;;;4864001;29;20056;-79
2021/12/06 00:03:54;;;;;;;28.75;11.82;;;1.70;99.90;;;;;;4864313;29;20057;-80
2021/12/06 00:06:23;;;;;;;29.48;12.27;;;1.70;99.90;;;;;;4863448;29;20053;-79
2021/12/06 00:08:49;;;;;;;28.88;11.80;;;1.70;99.90;;;;;;4863861;29;20053;-78
2021/12/06 00:11:15;;;;;;;27.60;11.73;;;1.70;99.90;;;;;;4846985;29;20560;-78
2021/12/06 00:13:44;;;;;;;29.17;12.73;;;1.70;99.90;;;;;;4863905;29;20116;-79
2021/12/06 00:16:16;;;;;;;31.30;12.48;;;1.70;99.90;;;;;;4863664;29;20050;-78
2021/12/06 00:18:42;;;;;;;31.80;12.52;;;1.70;99.90;;;;;;4863775;29;20049;-80
2021/12/06 00:21:09;;;;;;;30.40;12.70;;;1.70;99.90;;;;;;4863460;29;20057;-79
2021/12/06 00:23:36;;;;;;;27.80;11.45;;;1.70;99.90;;;;;;4846772;29;20057;-80
2021/12/06 00:26:03;;;;;;;36.33;13.65;;;1.70;99.90;;;;;;4863678;29;20045;-81
2021/12/06 00:28:30;;;;;;;29.83;12.35;;;1.70;99.90;;;;;;4863503;29;20060;-78
2021/12/06 00:30:56;;;;;;;30.73;11.63;;;1.70;99.90;;;;;;4863507;29;20105;-79
2021/12/06 00:33:23;;;;;;;30.42;12.25;;;1.70;99.90;;;;;;4863623;29;20049;-79
2021/12/06 00:35:49;;;;;;;27.70;11.32;;;1.70;99.90;;;;;;4846593;29;20062;-80
2021/12/06 00:38:16;;;;;;;31.88;11.48;;;1.70;99.90;;;;;;4862890;29;20061;-78
2021/12/06 00:40:46;;;;;;;30.88;12.05;;;1.70;99.90;;;;;;4863496;29;20049;-79
2021/12/06 00:43:13;;;;;;;28.20;11.52;;;1.70;99.90;;;;;;4863236;29;20452;-78
2021/12/06 00:45:39;;;;;;;28.90;11.77;;;1.70;99.90;;;;;;4846637;29;20054;-78
2021/12/06 00:48:05;;;;;;;34.25;12.60;;;1.70;99.90;;;;;;4862928;29;20053;-79
2021/12/06 00:50:34;;;;;;;29.38;11.75;;;1.80;99.90;;;;;;4863392;29;20443;-79
2021/12/06 00:53:00;;;;;;;30.95;11.13;;;1.80;99.90;;;;;;4862810;29;20384;-79
2021/12/06 00:55:27;;;;;;;30.27;12.65;;;1.80;99.90;;;;;;4863203;29;20049;-81
2021/12/06 00:57:53;;;;;;;30.35;12.38;;;2.80;99.90;;;;;;4863009;29;20045;-77
2021/12/06 01:00:29;;;;;;;32.00;12.63;;;1.80;99.90;;;;;;4846263;29;20569;-78
2021/12/06 01:02:56;;;;;;;28.92;11.18;;;1.80;99.90;;;;;;4863083;29;20045;-78
2021/12/06 01:05:26;;;;;;;28.85;12.35;;;1.80;99.90;;;;;;4862854;29;20129;-78
2021/12/06 01:07:54;;;;;;;31.20;12.18;;;1.80;99.90;;;;;;4862743;29;20045;-79
2021/12/06 01:10:22;;;;;;;31.20;11.65;;;1.80;99.90;;;;;;4862640;29;20124;-79
2021/12/06 01:12:47;;;;;;;33.17;12.35;;;1.80;99.90;;;;;;4862815;29;20052;-80
2021/12/06 01:15:13;;;;;;;29.95;11.75;;;1.80;99.90;;;;;;4862965;29;20041;-80
2021/12/06 01:17:39;;;;;;;30.20;12.20;;;1.80;99.90;;;;;;4861775;29;20053;-79
2021/12/06 01:20:09;;;;;;;29.92;12.50;;;1.80;99.90;;;;;;4862649;29;20053;-78
2021/12/06 01:22:47;;;;;;;33.20;14.02;;;1.80;99.90;;;;;;4862656;29;20098;-79
2021/12/06 01:25:27;;;;;;;31.70;11.50;;;1.80;99.90;;;;;;4862147;29;20392;-78
2021/12/06 01:41:15;;;;;;;33.10;12.45;;;1.80;99.90;;;;;;4862014;29;20098;-79
2021/12/06 01:44:20;;;;;;;29.58;11.85;;;2.80;99.90;;;;;;4860977;29;20057;-79
2021/12/06 01:46:52;;;;;;;31.92;11.40;;;1.80;99.90;;;;;;4862324;29;20092;-79
2021/12/06 01:49:20;;;;;;;31.98;12.32;;;1.80;99.90;;;;;;4862149;29;20530;-79
2021/12/06 01:51:48;;;;;;;29.80;12.55;;;1.80;99.90;;;;;;4845631;29;20144;-80
2021/12/06 01:54:15;;;;;;;33.63;12.68;;;1.80;99.90;;;;;;4862174;29;20082;-79
2021/12/06 01:56:42;;;;;;;36.10;13.00;;;1.80;99.90;;;;;;4861535;29;20060;-79
2021/12/06 01:59:08;;;;;;;33.40;13.18;;;1.80;99.90;;;;;;4860947;29;20049;-76
2021/12/06 02:01:35;;;;;;;29.80;12.35;;;1.80;99.90;;;;;;4844950;29;20054;-79
2021/12/06 02:04:03;;;;;;;35.05;12.77;;;1.80;99.90;;;;;;4861674;29;20102;-79
2021/12/06 02:06:29;;;;;;;28.50;12.18;;;1.80;99.90;;;;;;4861883;29;20049;-79
2021/12/06 02:08:55;;;;;;;27.65;10.63;;;3.20;99.90;;;;;;4861869;29;20467;-79
2021/12/06 02:11:24;;;;;;;30.77;12.05;;;1.80;99.90;;;;;;4860356;29;20477;-79
2021/12/06 02:13:59;;;;;;;30.80;12.77;;;1.80;99.90;;;;;;4861275;29;20061;-75
2021/12/06 02:16:34;;;;;;;29.70;12.50;;;1.80;99.90;;;;;;4861507;29;20109;-80
2021/12/06 02:19:04;;;;;;;34.33;12.65;;;1.80;99.90;;;;;;4844989;29;20057;-79
2021/12/06 02:21:34;;;;;;;38.40;13.18;;;1.80;99.90;;;;;;4861566;29;20053;-79
2021/12/06 02:24:03;;;;;;;35.30;13.02;;;2.90;99.90;;;;;;4861620;29;20054;-79
2021/12/06 02:26:29;;;;;;;35.35;12.77;;;2.50;99.90;;;;;;4844781;29;20056;-78
2021/12/06 02:28:55;;;;;;;32.10;12.23;;;1.80;99.90;;;;;;4861015;29;20055;-79
2021/12/06 02:31:26;;;;;;;35.58;12.85;;;1.80;99.90;;;;;;4861434;29;20140;-79
2021/12/06 02:33:53;;;;;;;33.00;13.60;;;1.80;99.90;;;;;;4859795;29;20057;-77
2021/12/06 02:36:21;;;;;;;30.13;10.93;;;1.80;99.90;;;;;;4861243;29;20046;-78
2021/12/06 02:38:47;;;;;;;34.35;13.27;;;1.80;99.90;;;;;;4844784;29;20052;-79
2021/12/06 02:41:18;;;;;;;27.45;11.95;;;1.80;99.90;;;;;;4861149;29;20060;-77
2021/12/06 02:43:44;;;;;;;35.03;11.80;;;1.80;99.90;;;;;;4860519;29;20057;-79
2021/12/06 02:46:10;;;;;;;33.85;13.15;;;1.80;99.90;;;;;;4861194;29;20145;-78
2021/12/06 02:48:36;;;;;;;35.83;13.60;;;1.80;99.90;;;;;;4861139;29;20110;-79
2021/12/06 02:51:05;;;;;;;32.50;13.05;;;1.80;99.90;;;;;;4844782;29;20046;-78
2021/12/06 02:53:32;;;;;;;31.13;11.13;;;1.80;99.90;;;;;;4844079;29;20565;-79
2021/12/06 02:56:04;;;;;;;33.10;12.57;;;1.80;99.90;;;;;;4860182;29;20132;-79
2021/12/06 03:01:00;;;;;;;33.28;12.25;;;1.90;99.90;;;;;;4860496;29;20498;-79
2021/12/06 03:03:26;;;;;;;33.25;12.13;;;1.90;99.90;;;;;;4859690;29;20058;-78
2021/12/06 03:05:52;;;;;;;30.75;10.93;;;1.90;99.90;;;;;;4860997;29;20060;-78
2021/12/06 03:09:05;;;;;;;31.58;11.23;;;1.90;99.90;;;;;;4844300;29;20402;-79
2021/12/06 03:11:42;;;;;;;35.13;12.25;;;2.40;99.90;;;;;;4840426;29;20053;-78
2021/12/06 03:14:11;;;;;;;33.22;11.32;;;1.90;99.90;;;;;;4840331;29;20046;-78
2021/12/06 03:16:37;;;;;;;34.97;12.15;;;1.90;99.90;;;;;;4824511;29;20442;-78
2021/12/06 03:19:05;;;;;;;31.80;11.45;;;1.90;99.90;;;;;;4840386;29;20086;-78
2021/12/06 03:21:31;;;;;;;33.55;12.25;;;1.90;99.90;;;;;;4840401;29;20140;-78
2021/12/06 03:23:58;;;;;;;29.58;11.35;;;1.90;99.90;;;;;;4825365;29;20130;-78
2021/12/06 03:26:25;;;;;;;30.88;12.18;;;1.90;99.90;;;;;;4840312;29;20052;-78
2021/12/06 03:28:51;;;;;;;33.17;12.82;;;2.00;99.90;;;;;;4840214;29;20062;-78
2021/12/06 03:31:18;;;;;;;33.08;12.55;;;2.00;99.90;;;;;;4824788;29;20055;-79
2021/12/06 03:33:47;;;;;;;29.00;11.75;;;2.00;99.90;;;;;;4840143;29;20440;-78
2021/12/06 03:36:16;;;;;;;38.38;12.55;;;2.00;99.90;;;;;;4840268;29;20081;-78
2021/12/06 03:38:42;;;;;;;34.78;12.35;;;1.90;99.90;;;;;;4809987;29;20054;-79
2021/12/06 03:41:10;;;;;;;35.42;13.20;;;1.90;99.90;;;;;;4842112;29;20133;-78
2021/12/06 03:43:37;;;;;;;35.75;12.02;;;3.00;99.90;;;;;;4860621;29;20058;-79
2021/12/06 03:46:03;;;;;;;34.25;13.05;;;2.00;99.90;;;;;;4860529;29;20053;-78
2021/12/06 03:48:29;;;;;;;37.35;12.07;;;2.00;99.90;;;;;;4858747;29;20049;-78
2021/12/06 03:50:55;;;;;;;39.15;12.27;;;2.00;99.90;;;;;;4860623;29;20128;-76
2021/12/06 03:53:20;;;;;;;37.80;13.93;;;2.00;99.90;;;;;;4860508;29;20510;-78
2021/12/06 03:55:46;;;;;;;32.90;11.77;;;2.00;99.90;;;;;;4860492;29;20394;-79
2021/12/06 03:58:12;;;;;;;29.45;11.68;;;2.00;99.90;;;;;;4860421;29;20057;-77
2021/12/06 04:00:39;;;;;;;35.25;11.82;;;2.70;99.90;;;;;;4860514;29;20456;-78
2021/12/06 04:03:05;;;;;;;36.42;12.57;;;2.00;99.90;;;;;;4859858;29;20525;-78
2021/12/06 04:05:31;;;;;;;36.90;12.30;;;2.00;99.90;;;;;;4843720;29;20053;-78
2021/12/06 04:07:56;;;;;;;31.48;10.15;;;2.00;99.90;;;;;;4860293;29;20455;-78
2021/12/06 04:10:25;;;;;;;29.27;12.38;;;1.90;99.90;;;;;;4860403;29;20045;-78
2021/12/06 04:12:52;;;;;;;30.33;10.50;;;2.00;99.90;;;;;;4859080;29;20502;-78
2021/12/06 04:15:18;;;;;;;36.72;12.43;;;2.00;99.90;;;;;;4860223;29;20128;-78
2021/12/06 04:17:44;;;;;;;36.83;12.88;;;2.00;99.90;;;;;;4860226;29;20116;-78
2021/12/06 04:20:12;;;;;;;30.10;11.98;;;2.00;99.90;;;;;;4843510;29;20057;-77
2021/12/06 04:22:39;;;;;;;37.67;12.20;;;2.00;99.90;;;;;;4862120;29;20088;-79
2021/12/06 04:25:09;;;;;;;39.17;12.82;;;2.00;99.90;;;;;;4847085;29;20060;-81
2021/12/06 04:27:35;;;;;;;39.08;12.88;;;2.00;99.90;;;;;;4863767;29;20046;-80
2021/12/06 04:30:03;;;;;;;38.65;12.43;;;2.00;99.90;;;;;;4863660;29;20055;-78
2021/12/06 04:32:29;;;;;;;41.33;13.32;;;2.00;99.90;;;;;;4863447;29;20041;-79
2021/12/06 04:34:56;;;;;;;33.55;10.82;;;2.00;99.90;;;;;;4863172;29;20057;-79
2021/12/06 04:37:21;;;;;;;29.88;10.35;;;2.00;99.90;;;;;;4863572;29;20550;-79
2021/12/06 04:39:47;;;;;;;44.08;12.20;;;2.00;99.90;;;;;;4863475;29;20132;-77
2021/12/06 04:42:14;;;;;;;36.70;12.98;;;2.10;99.90;;;;;;4863334;29;20077;-79
2021/12/06 04:44:40;;;;;;;36.50;12.95;;;2.60;99.90;;;;;;4863408;29;20136;-79
2021/12/06 04:47:06;;;;;;;32.50;12.02;;;2.00;99.90;;;;;;4846430;29;20133;-79
2021/12/06 04:49:32;;;;;;;36.42;12.02;;;2.10;99.90;;;;;;4862476;29;20090;-79
2021/12/06 04:52:01;;;;;;;32.90;11.52;;;2.00;99.90;;;;;;4863010;29;20117;-78
2021/12/06 04:54:32;;;;;;;28.52;11.60;;;2.00;99.90;;;;;;4863199;29;20049;-79
2021/12/06 04:57:32;;;;;;;29.83;11.38;;;2.00;99.90;;;;;;4846830;29;20436;-76
2021/12/06 05:00:04;;;;;;;34.63;12.00;;;2.00;99.90;;;;;;4846345;29;20049;-79
2021/12/06 05:02:34;;;;;;;28.38;10.93;;;2.00;99.90;;;;;;4862838;29;20060;-79
2021/12/06 05:05:06;;;;;;;33.22;11.77;;;2.00;99.90;;;;;;4846726;29;20111;-79
2021/12/06 05:07:37;;;;;;;33.85;12.10;;;2.00;99.90;;;;;;4862450;29;20443;-79
2021/12/06 05:10:09;;;;;;;33.15;11.60;;;2.00;99.90;;;;;;4862755;29;20093;-79
2021/12/06 05:12:36;;;;;;;36.90;12.13;;;2.20;99.90;;;;;;4846296;29;20061;-80
2021/12/06 05:15:02;;;;;;;26.23;11.18;;;2.00;99.90;;;;;;4863010;29;20053;-78
2021/12/06 05:17:29;;;;;;;33.22;12.52;;;2.10;99.90;;;;;;4861542;29;20053;-80
2021/12/06 05:19:55;;;;;;;36.50;14.73;;;2.10;99.90;;;;;;4862855;29;20056;-80
2021/12/06 05:22:21;;;;;;;35.63;13.90;;;2.10;99.90;;;;;;4845645;29;20106;-78
2021/12/06 05:24:47;;;;;;;34.38;15.30;;;2.10;99.90;;;;;;4862512;29;20129;-79
2021/12/06 05:27:13;;;;;;;39.78;16.00;;;2.10;99.90;;;;;;4861610;29;20132;-79
2021/12/06 05:29:44;;;;;;;38.92;15.70;;;2.10;99.90;;;;;;4862759;29;20045;-80
2021/12/06 05:32:09;;;;;;;42.22;14.27;;;2.10;99.90;;;;;;4862687;29;20053;-80
2021/12/06 05:34:43;;;;;;;39.33;15.82;;;2.10;99.90;;;;;;4861389;29;20079;-79
2021/12/06 05:37:12;;;;;;;36.08;16.02;;;2.10;99.90;;;;;;4860992;29;20128;-80
2021/12/06 05:39:38;;;;;;;39.30;15.65;;;2.10;99.90;;;;;;4845190;29;20159;-78
2021/12/06 05:42:11;;;;;;;33.05;13.98;;;2.10;99.90;;;;;;4861119;29;20077;-78
2021/12/06 05:44:37;;;;;;;35.88;14.40;;;2.10;99.90;;;;;;4862114;29;20448;-80
2021/12/06 05:47:04;;;;;;;34.75;14.00;;;2.20;99.90;;;;;;4862352;29;20052;-79
2021/12/06 05:49:30;;;;;;;35.67;14.63;;;2.10;99.90;;;;;;4862398;29;20518;-78
2021/12/06 05:51:56;;;;;;;32.47;14.93;;;2.10;99.90;;;;;;4862087;29;20046;-77
2021/12/06 05:54:23;;;;;;;35.33;14.75;;;2.10;99.90;;;;;;4861509;29;20085;-80
2021/12/06 05:56:50;;;;;;;36.28;14.27;;;2.10;99.90;;;;;;4860727;29;20088;-79
2021/12/06 05:59:16;;;;;;;35.47;15.00;;;2.10;99.90;;;;;;4861886;29;20133;-78
2021/12/06 06:01:42;;;;;;;43.00;17.50;;;2.10;99.90;;;;;;4862034;29;20136;-79
2021/12/06 06:04:08;;;;;;;35.50;14.52;;;2.10;99.90;;;;;;4862015;29;20049;-79
2021/12/06 06:06:36;;;;;;;33.33;14.23;;;2.10;99.90;;;;;;4861953;29;20053;-79
2021/12/06 06:09:04;;;;;;;42.80;15.10;;;2.10;99.90;;;;;;4861435;29;20557;-78
2021/12/06 06:11:29;;;;;;;38.70;15.68;;;2.10;99.90;;;;;;4860363;29;20058;-78
2021/12/06 06:13:55;;;;;;;35.80;14.60;;;3.40;99.90;;;;;;4845157;29;20061;-79
2021/12/06 06:16:22;;;;;;;37.38;15.13;;;2.10;99.90;;;;;;4861677;29;20507;-80
2021/12/06 06:18:50;;;;;;;34.53;15.43;;;2.10;99.90;;;;;;4861800;29;20090;-78
2021/12/06 06:21:18;;;;;;;39.35;16.50;;;2.10;99.90;;;;;;4844922;29;20056;-80
2021/12/06 06:23:44;;;;;;;40.45;15.90;;;2.10;99.90;;;;;;4861463;29;20443;-77
2021/12/06 06:26:10;;;;;;;37.03;14.70;;;2.10;99.90;;;;;;4859884;29;20170;-79
2021/12/06 06:28:35;;;;;;;38.60;13.93;;;2.10;99.90;;;;;;4844879;29;20101;-80
2021/12/06 06:31:02;;;;;;;37.03;15.25;;;2.10;99.90;;;;;;4844973;29;20057;-80
2021/12/06 06:33:27;;;;;;;39.90;16.38;;;2.30;99.90;;;;;;4844712;29;20052;-79
2021/12/06 06:35:53;;;;;;;39.78;16.42;;;2.50;99.90;;;;;;4844882;29;20053;-76
2021/12/06 06:38:20;;;;;;;39.78;17.42;;;2.30;99.90;;;;;;4829583;29;20046;-78
2021/12/06 06:40:46;;;;;;;39.00;15.13;;;2.10;99.90;;;;;;4859761;29;20045;-78
2021/12/06 06:43:12;;;;;;;50.72;16.33;;;2.10;99.90;;;;;;4860707;29;20057;-80
2021/12/06 06:45:38;;;;;;;40.60;16.40;;;2.60;99.90;;;;;;4860902;29;20061;-81
2021/12/06 06:48:04;;;;;;;39.47;14.88;;;2.10;99.90;;;;;;4861228;29;20041;-78
2021/12/06 06:50:30;;;;;;;41.95;16.08;;;2.10;99.90;;;;;;4861622;29;20200;-80
2021/12/06 06:52:56;;;;;;;46.40;16.88;;;2.10;99.90;;;;;;4861247;29;20045;-79
2021/12/06 06:55:22;;;;;;;46.47;17.83;;;2.10;99.90;;;;;;4859701;29;20084;-80
2021/12/06 06:57:51;;;;;;;45.70;18.00;;;2.10;99.90;;;;;;4844342;29;20045;-81
2021/12/06 07:00:25;;;;;;;47.72;15.63;;;2.10;99.90;;;;;;4860988;29;20471;-81
2021/12/06 07:02:51;;;;;;;50.47;17.92;;;2.90;99.90;;;;;;4861158;29;20124;-81
2021/12/06 07:05:17;;;;;;;45.55;18.98;;;2.10;99.90;;;;;;4860942;29;20133;-80
2021/12/06 07:07:42;;;;;;;50.95;17.20;;;2.10;99.90;;;;;;4860918;29;20089;-80
2021/12/06 07:10:09;;;;;;;43.35;17.00;;;2.10;99.90;;;;;;4844354;29;20049;-80
2021/12/06 07:12:43;;;;;;;55.38;18.95;;;2.10;99.90;;;;;;4860366;29;20056;-80
2021/12/06 07:15:11;;;;;;;42.03;16.23;;;2.10;99.90;;;;;;4844114;29;20455;-80
2021/12/06 07:17:41;;;;;;;49.22;20.55;;;2.10;99.90;;;;;;4844032;29;20110;-77
2021/12/06 07:20:09;;;;;;;41.33;15.30;;;2.10;99.90;;;;;;4860793;29;20053;-80
2021/12/06 07:22:35;;;;;;;48.03;18.23;;;2.10;99.90;;;;;;4860758;29;20069;-80
2021/12/06 07:25:03;;;;;;;43.72;17.23;;;2.10;99.90;;;;;;4860814;29;20046;-81
2021/12/06 07:27:28;;;;;;;44.58;16.63;;;2.10;99.90;;;;;;4859459;29;20101;-81
2021/12/06 07:29:54;;;;;;;41.03;17.10;;;2.60;99.90;;;;;;4860481;29;20446;-80
2021/12/06 07:32:31;;;;;;;45.58;18.60;;;2.10;99.90;;;;;;4861007;29;20080;-81
2021/12/06 07:34:57;;;;;;;45.75;16.77;;;3.30;99.90;;;;;;4844150;29;20053;-78
2021/12/06 07:37:22;;;;;;;40.63;16.08;;;2.10;99.90;;;;;;4828152;29;20064;-78
2021/12/06 07:39:48;;;;;;;38.97;14.82;;;2.10;99.90;;;;;;4859469;29;20524;-80
2021/12/06 07:42:14;;;;;;;46.35;16.42;;;2.10;99.90;;;;;;4829197;29;20060;-79
2021/12/06 07:44:42;;;;;;;48.13;18.65;;;2.10;99.90;;;;;;4860243;29;20061;-79
2021/12/06 07:47:09;;;;;;;56.65;25.88;;;2.10;99.90;;;;;;4860518;29;20057;-79
2021/12/06 07:49:37;;;;;;;36.88;14.85;;;2.10;99.90;;;;;;4860563;29;20091;-78
2021/12/06 07:52:04;;;;;;;35.95;13.98;;;2.10;99.90;;;;;;4860441;29;20101;-78
2021/12/06 07:54:29;;;;;;;40.30;16.58;;;2.10;99.90;;;;;;4860662;29;20049;-79
2021/12/06 07:56:55;;;;;;;44.40;15.75;;;2.00;99.90;;;;;;4861865;29;20061;-79
2021/12/06 07:59:21;;;;;;;49.85;19.35;;;2.90;99.90;;;;;;4864474;29;20088;-79
2021/12/06 08:01:47;;;;;;;41.03;15.82;;;2.00;99.90;;;;;;4863436;29;20077;-78
2021/12/06 08:04:12;;;;;;;51.22;23.63;;;2.00;99.90;;;;;;4865328;29;20405;-72
2021/12/06 08:06:38;;;;;;;38.28;15.65;;;2.00;99.90;;;;;;4881018;29;20049;-71
2021/12/06 08:09:05;;;;;;;39.55;15.18;;;2.10;99.90;;;;;;4881534;29;20132;-70
2021/12/06 08:11:31;;;;;;;35.92;13.10;;;2.10;99.90;;;;;;4881361;29;20417;-67
2021/12/06 08:13:57;;;;;;;44.75;18.48;;;2.10;99.90;;;;;;4880779;29;20124;-70
2021/12/06 08:16:27;;;;;;;47.08;21.13;;;2.00;99.90;;;;;;4880642;29;20045;-71
2021/12/06 08:18:53;;;;;;;39.75;17.55;;;3.00;99.90;;;;;;4880807;29;20097;-71
2021/12/06 08:21:21;;;;;;;44.70;17.92;;;2.20;99.90;;;;;;4864488;29;20073;-70
2021/12/06 08:23:49;;;;;;;49.78;20.80;;;2.00;99.90;;;;;;4881242;29;20517;-70
2021/12/06 08:26:17;;;;;;;49.17;17.23;;;2.00;99.90;;;;;;4881603;29;20087;-70
2021/12/06 08:28:43;;;;;;;33.67;12.40;;;2.10;99.90;;;;;;4880680;29;20131;-70
2021/12/06 08:31:10;;;;;;;40.65;16.25;;;2.00;99.90;;;;;;4881674;29;20063;-70
2021/12/06 08:33:36;;;;;;;38.47;15.68;;;2.00;99.90;;;;;;4880359;29;20052;-70
2021/12/06 08:36:05;;;;;;;44.38;18.10;;;2.10;99.90;;;;;;4864085;29;20077;-71
2021/12/06 08:38:32;;;;;;;49.42;19.83;;;2.10;99.90;;;;;;4881145;29;20052;-69
2021/12/06 08:41:00;;;;;;;45.70;19.00;;;2.10;99.90;;;;;;4864194;29;20052;-71
2021/12/06 08:43:25;;;;;;;42.33;18.70;;;2.10;99.90;;;;;;4881135;29;20494;-70
2021/12/06 08:46:00;;;;;;;51.25;21.35;;;1.90;99.90;;;;;;4878980;29;20045;-71
2021/12/06 08:48:28;;;;;;;47.78;20.20;;;2.00;99.90;;;;;;4880837;29;20519;-69
2021/12/06 08:50:56;;;;;;;41.42;18.20;;;2.00;99.90;;;;;;4875678;29;20044;-68
2021/12/06 08:53:23;;;;;;;46.00;19.08;;;2.00;99.90;;;;;;4878503;29;20409;-66
2021/12/06 08:55:49;;;;;;;57.58;23.38;;;2.10;99.90;;;;;;4861369;29;20045;-67
2021/12/06 08:58:15;;;;;;;43.22;19.42;;;2.10;99.90;;;;;;4877213;29;20061;-70
2021/12/06 09:00:41;;;;;;;49.90;18.00;;;2.40;99.90;;;;;;4876602;29;20049;-69
2021/12/06 09:03:07;;;;;;;45.83;18.33;;;2.10;99.90;;;;;;4862013;29;20061;-70
2021/12/06 09:05:40;;;;;;;42.38;18.42;;;2.10;99.90;;;;;;4877787;29;20537;-68
2021/12/06 09:08:06;;;;;;;40.60;17.45;;;2.10;99.90;;;;;;4877141;29;20125;-70
2021/12/06 09:10:32;;;;;;;40.55;17.98;;;2.00;99.90;;;;;;4859931;29;20520;-68
2021/12/06 09:12:58;;;;;;;45.58;17.55;;;2.00;99.90;;;;;;4878392;29;20406;-70
2021/12/06 09:15:25;;;;;;;46.75;21.70;;;2.00;99.90;;;;;;4878142;29;20049;-68
2021/12/06 09:17:53;;;;;;;39.13;17.17;;;2.00;99.90;;;;;;4879145;29;20056;-70
2021/12/06 09:20:22;;;;;;;43.70;17.13;;;2.00;99.90;;;;;;4860185;29;20497;-69
2021/12/06 09:22:48;;;;;;;38.10;16.10;;;2.00;99.90;;;;;;4878843;29;20045;-72
2021/12/06 09:25:16;;;;;;;63.58;27.95;;;2.00;99.90;;;;;;4878425;29;20053;-74
2021/12/06 09:27:42;;;;;;;46.58;19.63;;;2.00;99.90;;;;;;4875844;29;20041;-71
2021/12/06 09:30:11;;;;;;;38.13;15.98;;;2.30;99.90;;;;;;4861111;29;20421;-71
2021/12/06 09:32:37;;;;;;;38.70;16.35;;;2.10;99.90;;;;;;4858558;29;20090;-70
2021/12/06 09:35:04;;;;;;;39.85;16.15;;;2.10;99.90;;;;;;4870769;29;20049;-67
2021/12/06 09:37:30;;;;;;;47.13;19.92;;;2.10;99.90;;;;;;4872228;29;20077;-68
2021/12/06 09:39:57;;;;;;;37.60;15.75;;;2.10;99.90;;;;;;4873564;29;20516;-73
2021/12/06 09:42:23;;;;;;;37.63;15.45;;;2.00;99.90;;;;;;4878821;29;20060;-71
2021/12/06 09:44:49;;;;;;;37.38;14.70;;;2.10;99.90;;;;;;4878044;29;20073;-69
2021/12/06 09:47:15;;;;;;;39.05;16.38;;;2.00;99.90;;;;;;4862622;29;20113;-69
2021/12/06 09:49:40;;;;;;;44.08;19.92;;;2.00;99.90;;;;;;4876402;29;20052;-70
2021/12/06 09:52:07;;;;;;;58.08;23.23;;;2.00;99.90;;;;;;4860251;29;20545;-67
2021/12/06 09:54:39;;;;;;;43.30;19.05;;;2.00;99.90;;;;;;4878052;29;20557;-70
2021/12/06 09:57:06;;;;;;;;;;;2.00;99.90;;;;;;4847780;29;20049;-67
2021/12/06 09:59:33;;;;;;;36.42;16.23;;;2.10;99.90;;;;;;4859686;29;19923;-67
2021/12/06 10:02:04;;;;;;;32.40;14.15;;;2.20;99.90;;;;;;4876237;29;20053;-71
2021/12/06 10:04:33;;;;;;;34.58;14.23;;;2.20;99.90;;;;;;4866362;29;20161;-69
2021/12/06 10:07:00;;;;;;;30.55;13.48;;;2.20;99.90;;;;;;4860703;29;20060;-69
2021/12/06 10:09:27;;;;;;;35.60;13.65;;;2.20;99.90;;;;;;4858013;29;20124;-69
2021/12/06 10:11:57;;;;;;;31.38;13.52;;;2.20;99.90;;;;;;4868985;29;20033;-71
2021/12/06 10:14:23;;;;;;;33.15;14.82;;;2.10;99.90;;;;;;4872590;29;20410;-70
2021/12/06 10:16:49;;;;;;;32.88;13.32;;;2.10;99.90;;;;;;4860866;29;20052;-71
2021/12/06 10:19:16;;;;;;;35.47;14.27;;;2.10;99.90;;;;;;4877640;29;20045;-69
2021/12/06 10:21:42;;;;;;;37.70;14.65;;;2.00;99.90;;;;;;4875042;29;20112;-70
2021/12/06 10:24:20;;;;;;;34.45;13.73;;;2.00;99.90;;;;;;4860641;29;20060;-72
2021/12/06 10:26:46;;;;;;;33.88;13.95;;;2.20;99.90;;;;;;4877586;29;20055;-72
2021/12/06 10:29:20;;;;;;;34.67;14.13;;;2.00;99.90;;;;;;4877824;29;20072;-70
2021/12/06 10:31:48;;;;;;;35.13;14.88;;;2.10;99.90;;;;;;4873828;29;20049;-67
2021/12/06 10:34:18;;;;;;;35.42;14.55;;;2.00;99.90;;;;;;4861082;29;20537;-70
2021/12/06 10:36:45;;;;;;;36.80;14.90;;;2.00;99.90;;;;;;4877588;29;20508;-71
2021/12/06 10:39:11;;;;;;;38.47;15.95;;;2.30;99.90;;;;;;4860650;29;20053;-69
2021/12/06 10:41:38;;;;;;;36.17;14.77;;;2.80;99.90;;;;;;4871410;29;20045;-70
2021/12/06 10:44:09;;;;;;;36.08;15.85;;;2.00;99.90;;;;;;4876432;29;20058;-72
2021/12/06 10:46:38;;;;;;;33.03;14.15;;;2.00;99.90;;;;;;4871473;29;20479;-72
2021/12/06 10:49:07;;;;;;;34.17;14.27;;;2.00;99.90;;;;;;4872816;29;20127;-71
2021/12/06 10:51:33;;;;;;;32.08;15.07;;;2.10;99.90;;;;;;4853873;29;20140;-68
2021/12/06 10:54:05;;;;;;;33.97;13.48;;;2.10;99.90;;;;;;4853635;29;20503;-70
2021/12/06 10:56:42;;;;;;;38.35;15.35;;;2.10;99.90;;;;;;4858638;29;20131;-72
2021/12/06 10:59:30;;;;;;;33.38;12.90;;;2.60;99.90;;;;;;4868465;29;20070;-69
2021/12/06 11:02:03;;;;;;;31.95;14.77;;;2.00;99.90;;;;;;4867343;29;20136;-70
2021/12/06 11:04:30;;;;;;;34.30;14.13;;;3.00;99.90;;;;;;4871546;29;20435;-70
2021/12/06 11:07:04;;;;;;;37.33;15.48;;;2.00;99.90;;;;;;4857227;29;20049;-71
2021/12/06 11:09:32;;;;;;;36.38;14.98;;;2.00;99.90;;;;;;4871326;29;20136;-71
2021/12/06 11:12:04;;;;;;;35.53;14.98;;;2.90;99.90;;;;;;4858687;29;20088;-71
2021/12/06 11:14:39;;;;;;;35.88;14.80;;;2.00;99.90;;;;;;4874509;29;20055;-69
2021/12/06 11:17:13;;;;;;;34.80;13.07;;;1.90;99.90;;;;;;4859891;29;20069;-69
2021/12/06 11:19:40;;;;;;;34.47;14.52;;;2.00;99.90;;;;;;4874821;29;20076;-69
2021/12/06 11:22:09;;;;;;;33.25;13.43;;;2.00;99.90;;;;;;4870648;29;20045;-70
2021/12/06 11:24:54;;;;;;;40.40;15.80;;;2.00;99.90;;;;;;4870526;29;20068;-70
2021/12/06 11:27:23;;;;;;;38.97;15.38;;;3.00;99.90;;;;;;4860037;29;20087;-71
2021/12/06 11:30:07;;;;;;;35.15;15.35;;;2.00;99.90;;;;;;4875611;29;20067;-70
2021/12/06 11:32:40;;;;;;;36.05;14.52;;;2.00;99.90;;;;;;4878914;29;20099;-70
2021/12/06 11:35:08;;;;;;;34.15;13.05;;;2.00;99.90;;;;;;4864079;29;20097;-70
2021/12/06 11:37:49;;;;;;;34.78;13.43;;;2.10;99.90;;;;;;4862752;29;20053;-68
2021/12/06 11:40:25;;;;;;;33.45;13.50;;;2.10;99.90;;;;;;4863550;29;20057;-68
2021/12/06 11:42:57;;;;;;;29.15;12.98;;;2.10;99.90;;;;;;4880014;29;20471;-68
2021/12/06 11:45:36;;;;;;;31.17;13.15;;;2.10;99.90;;;;;;4880604;29;20464;-71
2021/12/06 11:48:04;;;;;;;29.60;12.55;;;2.10;99.90;;;;;;4879449;29;20116;-71
2021/12/06 11:50:30;;;;;;;31.23;13.98;;;2.10;99.90;;;;;;4878718;29;20398;-70
2021/12/06 11:53:01;;;;;;;32.47;13.50;;;2.10;99.90;;;;;;4880387;29;20088;-72
2021/12/06 11:55:29;;;;;;;28.27;13.27;;;2.10;99.90;;;;;;4878724;29;20109;-68
2021/12/06 11:57:54;;;;;;;28.75;12.63;;;2.10;99.90;;;;;;4879097;29;20084;-71
2021/12/06 12:00:23;;;;;;;26.45;11.70;;;2.10;99.90;;;;;;4878634;29;20451;-72
2021/12/06 12:02:49;;;;;;;31.60;13.75;;;2.20;99.90;;;;;;4880231;29;20045;-71
2021/12/06 12:05:21;;;;;;;31.98;14.18;;;2.80;99.90;;;;;;4880116;29;20522;-68
2021/12/06 12:08:07;;;;;;;28.45;12.07;;;3.70;99.90;;;;;;4879567;29;20127;-68
2021/12/06 12:10:47;;;;;;;32.10;13.82;;;2.20;99.90;;;;;;4874919;29;20057;-70
2021/12/06 12:13:35;;;;;;;33.05;14.25;;;2.30;99.90;;;;;;4872789;29;20092;-70
2021/12/06 12:16:07;;;;;;;31.00;13.40;;;2.20;99.90;;;;;;4870380;29;20049;-72
2021/12/06 12:19:17;;;;;;;;;;;;;;;;;;;;;
2021/12/06 12:21:58;;;;;;;39.00;15.60;;;2.90;99.90;;;;;;4878468;29;20401;-70
2021/12/06 12:24:24;;;;;;;34.70;15.90;;;2.30;99.90;;;;;;4876640;29;20053;-71
2021/12/06 12:27:04;;;;;;;33.15;15.85;;;2.40;99.90;;;;;;4874879;29;20057;-72
2021/12/06 12:29:30;;;;;;;34.20;15.05;;;2.40;99.90;;;;;;4876219;29;20096;-71
2021/12/06 12:31:59;;;;;;;35.30;15.30;;;2.40;99.90;;;;;;4878125;29;20036;-71
2021/12/06 12:34:30;;;;;;;37.67;18.10;;;2.40;99.90;;;;;;4879914;29;20067;-70
2021/12/06 12:36:57;;;;;;;36.92;17.50;;;2.40;99.90;;;;;;4880604;29;20442;-69
2021/12/06 12:39:24;;;;;;;39.08;17.08;;;3.50;99.90;;;;;;4878864;29;20056;-70
2021/12/06 12:41:54;;;;;;;39.80;17.52;;;2.40;99.90;;;;;;4878144;29;20152;-70
2021/12/06 12:44:20;;;;;;;44.08;19.10;;;2.40;99.90;;;;;;4879247;29;20057;-77
2021/12/06 12:46:48;;;;;;;39.78;16.90;;;2.40;99.90;;;;;;4880380;29;20382;-71
2021/12/06 12:49:18;;;;;;;40.85;19.63;;;2.40;99.90;;;;;;4879774;29;20053;-80
2021/12/06 12:51:51;;;;;;;40.60;17.80;;;2.50;99.90;;;;;;4877837;29;20060;-82
2021/12/06 12:54:27;;;;;;;40.05;17.67;;;2.60;99.90;;;;;;4863357;29;20116;-76
2021/12/06 12:57:00;;;;;;;41.33;19.70;;;2.70;99.90;;;;;;4863057;29;20045;-69
2021/12/06 12:59:58;;;;;;;37.67;17.40;;;2.70;99.90;;;;;;4866214;29;20059;-70
2021/12/06 13:02:29;;;;;;;38.05;17.13;;;2.70;99.90;;;;;;4840085;29;20173;-72